sensor_id;sensor_type;location;lat;lon;timestamp;P1;durP1;ratioP1;P2;durP2;ratioP2
10383;SDS011;5238;43.508;4.980;2023-12-20T00:01:19;5.40;;;3.60;;
10383;SDS011;5238;43.508;4.980;2023-12-20T00:03:47;5.85;;;4.05;;
10383;SDS011;5238;43.508;4.980;2023-12-20T00:06:14;4.90;;;4.40;;
10383;SDS011;5238;43.508;4.980;2023-12-20T00:08:41;3.88;;;3.28;;
10383;SDS011;5238;43.508;4.980;2023-12-20T00:11:09;4.95;;;3.72;;
10383;SDS011;5238;43.508;4.980;2023-12-20T00:13:36;4.88;;;3.80;;
10383;SDS011;5238;43.508;4.980;2023-12-20T00:16:03;4.63;;;4.03;;
10383;SDS011;5238;43.508;4.980;2023-12-20T00:18:32;4.43;;;3.35;;
10383;SDS011;5238;43.508;4.980;2023-12-20T00:20:59;5.35;;;4.15;;
10383;SDS011;5238;43.508;4.980;2023-12-20T00:23:26;4.47;;;3.78;;
10383;SDS011;5238;43.508;4.980;2023-12-20T00:25:53;4.43;;;3.83;;
10383;SDS011;5238;43.508;4.980;2023-12-20T00:28:20;5.93;;;4.40;;
10383;SDS011;5238;43.508;4.980;2023-12-20T00:30:46;4.22;;;3.83;;
10383;SDS011;5238;43.508;4.980;2023-12-20T00:33:14;5.47;;;4.10;;
10383;SDS011;5238;43.508;4.980;2023-12-20T00:35:42;4.45;;;3.65;;
10383;SDS011;5238;43.508;4.980;2023-12-20T00:38:09;4.75;;;3.90;;
10383;SDS011;5238;43.508;4.980;2023-12-20T00:40:36;4.18;;;3.58;;
10383;SDS011;5238;43.508;4.980;2023-12-20T00:43:03;5.22;;;4.25;;
10383;SDS011;5238;43.508;4.980;2023-12-20T00:45:30;4.88;;;3.50;;
10383;SDS011;5238;43.508;4.980;2023-12-20T00:47:57;5.07;;;3.80;;
10383;SDS011;5238;43.508;4.980;2023-12-20T00:50:24;5.57;;;3.40;;
10383;SDS011;5238;43.508;4.980;2023-12-20T00:52:53;3.50;;;3.20;;
10383;SDS011;5238;43.508;4.980;2023-12-20T00:55:21;3.88;;;3.47;;
10383;SDS011;5238;43.508;4.980;2023-12-20T00:57:48;5.28;;;3.47;;
10383;SDS011;5238;43.508;4.980;2023-12-20T01:00:15;6.32;;;4.03;;
10383;SDS011;5238;43.508;4.980;2023-12-20T01:02:43;5.22;;;3.47;;
10383;SDS011;5238;43.508;4.980;2023-12-20T01:05:11;3.70;;;3.33;;
10383;SDS011;5238;43.508;4.980;2023-12-20T01:07:39;4.03;;;3.40;;
10383;SDS011;5238;43.508;4.980;2023-12-20T01:10:07;4.38;;;3.97;;
10383;SDS011;5238;43.508;4.980;2023-12-20T01:15:02;3.95;;;3.03;;
10383;SDS011;5238;43.508;4.980;2023-12-20T01:17:30;3.35;;;2.92;;
10383;SDS011;5238;43.508;4.980;2023-12-20T01:19:57;3.72;;;3.28;;
10383;SDS011;5238;43.508;4.980;2023-12-20T01:22:24;3.92;;;3.53;;
10383;SDS011;5238;43.508;4.980;2023-12-20T01:24:51;4.18;;;2.67;;
10383;SDS011;5238;43.508;4.980;2023-12-20T01:27:19;3.85;;;3.00;;
10383;SDS011;5238;43.508;4.980;2023-12-20T01:29:46;3.63;;;3.22;;
10383;SDS011;5238;43.508;4.980;2023-12-20T01:32:13;4.07;;;3.38;;
10383;SDS011;5238;43.508;4.980;2023-12-20T01:34:40;3.67;;;2.92;;
10383;SDS011;5238;43.508;4.980;2023-12-20T01:37:07;3.60;;;3.25;;
10383;SDS011;5238;43.508;4.980;2023-12-20T01:39:34;5.57;;;3.08;;
10383;SDS011;5238;43.508;4.980;2023-12-20T01:42:01;3.92;;;3.30;;
10383;SDS011;5238;43.508;4.980;2023-12-20T01:44:30;3.92;;;3.17;;
10383;SDS011;5238;43.508;4.980;2023-12-20T01:46:57;4.05;;;3.10;;
10383;SDS011;5238;43.508;4.980;2023-12-20T01:49:24;3.97;;;3.50;;
10383;SDS011;5238;43.508;4.980;2023-12-20T01:51:51;4.63;;;3.70;;
10383;SDS011;5238;43.508;4.980;2023-12-20T01:54:18;5.22;;;3.72;;
10383;SDS011;5238;43.508;4.980;2023-12-20T01:56:47;5.25;;;3.00;;
10383;SDS011;5238;43.508;4.980;2023-12-20T01:59:16;4.50;;;3.38;;
10383;SDS011;5238;43.508;4.980;2023-12-20T02:01:46;4.55;;;3.70;;
10383;SDS011;5238;43.508;4.980;2023-12-20T02:04:14;4.95;;;3.88;;
10383;SDS011;5238;43.508;4.980;2023-12-20T02:06:42;3.83;;;3.42;;
10383;SDS011;5238;43.508;4.980;2023-12-20T02:09:09;4.28;;;3.88;;
10383;SDS011;5238;43.508;4.980;2023-12-20T02:11:36;4.30;;;3.65;;
10383;SDS011;5238;43.508;4.980;2023-12-20T02:14:04;5.15;;;3.78;;
10383;SDS011;5238;43.508;4.980;2023-12-20T02:16:31;5.50;;;4.03;;
10383;SDS011;5238;43.508;4.980;2023-12-20T02:18:59;5.40;;;4.18;;
10383;SDS011;5238;43.508;4.980;2023-12-20T02:21:32;6.03;;;3.85;;
10383;SDS011;5238;43.508;4.980;2023-12-20T02:24:00;5.22;;;3.95;;
10383;SDS011;5238;43.508;4.980;2023-12-20T02:26:27;4.97;;;3.28;;
10383;SDS011;5238;43.508;4.980;2023-12-20T02:28:54;4.60;;;3.25;;
10383;SDS011;5238;43.508;4.980;2023-12-20T02:31:22;4.63;;;3.67;;
10383;SDS011;5238;43.508;4.980;2023-12-20T02:33:49;4.05;;;3.60;;
10383;SDS011;5238;43.508;4.980;2023-12-20T02:36:16;6.35;;;3.58;;
10383;SDS011;5238;43.508;4.980;2023-12-20T02:38:45;4.47;;;3.65;;
10383;SDS011;5238;43.508;4.980;2023-12-20T02:41:12;6.78;;;3.75;;
10383;SDS011;5238;43.508;4.980;2023-12-20T02:43:41;4.55;;;3.20;;
10383;SDS011;5238;43.508;4.980;2023-12-20T02:46:08;5.43;;;4.13;;
10383;SDS011;5238;43.508;4.980;2023-12-20T02:48:35;5.88;;;4.05;;
10383;SDS011;5238;43.508;4.980;2023-12-20T02:51:02;5.45;;;4.07;;
10383;SDS011;5238;43.508;4.980;2023-12-20T02:53:29;4.50;;;4.10;;
10383;SDS011;5238;43.508;4.980;2023-12-20T02:55:57;5.60;;;4.22;;
10383;SDS011;5238;43.508;4.980;2023-12-20T02:58:24;5.95;;;4.40;;
10383;SDS011;5238;43.508;4.980;2023-12-20T03:00:51;6.55;;;4.97;;
10383;SDS011;5238;43.508;4.980;2023-12-20T03:03:19;5.68;;;4.47;;
10383;SDS011;5238;43.508;4.980;2023-12-20T03:05:46;6.28;;;3.20;;
10383;SDS011;5238;43.508;4.980;2023-12-20T03:08:13;3.45;;;3.10;;
10383;SDS011;5238;43.508;4.980;2023-12-20T03:10:40;3.05;;;2.83;;
10383;SDS011;5238;43.508;4.980;2023-12-20T03:13:08;3.80;;;2.75;;
10383;SDS011;5238;43.508;4.980;2023-12-20T03:15:35;2.47;;;2.28;;
10383;SDS011;5238;43.508;4.980;2023-12-20T03:18:03;3.00;;;2.72;;
10383;SDS011;5238;43.508;4.980;2023-12-20T03:20:30;2.70;;;2.33;;
10383;SDS011;5238;43.508;4.980;2023-12-20T03:22:59;4.45;;;3.17;;
10383;SDS011;5238;43.508;4.980;2023-12-20T03:25:26;3.28;;;2.42;;
10383;SDS011;5238;43.508;4.980;2023-12-20T03:27:53;2.58;;;2.25;;
10383;SDS011;5238;43.508;4.980;2023-12-20T03:30:21;2.85;;;2.30;;
10383;SDS011;5238;43.508;4.980;2023-12-20T03:32:48;3.78;;;2.33;;
10383;SDS011;5238;43.508;4.980;2023-12-20T03:35:15;3.22;;;2.90;;
10383;SDS011;5238;43.508;4.980;2023-12-20T03:37:42;2.53;;;2.30;;
10383;SDS011;5238;43.508;4.980;2023-12-20T03:40:10;2.97;;;2.78;;
10383;SDS011;5238;43.508;4.980;2023-12-20T03:42:37;3.05;;;2.20;;
10383;SDS011;5238;43.508;4.980;2023-12-20T03:45:04;2.33;;;2.13;;
10383;SDS011;5238;43.508;4.980;2023-12-20T03:47:33;2.47;;;2.28;;
10383;SDS011;5238;43.508;4.980;2023-12-20T03:50:00;3.60;;;2.20;;
10383;SDS011;5238;43.508;4.980;2023-12-20T03:52:27;2.97;;;2.50;;
10383;SDS011;5238;43.508;4.980;2023-12-20T03:54:54;2.90;;;2.35;;
10383;SDS011;5238;43.508;4.980;2023-12-20T03:57:21;3.22;;;2.80;;
10383;SDS011;5238;43.508;4.980;2023-12-20T03:59:48;2.47;;;2.08;;
10383;SDS011;5238;43.508;4.980;2023-12-20T04:02:15;2.85;;;2.65;;
10383;SDS011;5238;43.508;4.980;2023-12-20T04:04:44;4.03;;;2.72;;
10383;SDS011;5238;43.508;4.980;2023-12-20T04:07:10;3.15;;;2.85;;
10383;SDS011;5238;43.508;4.980;2023-12-20T04:09:37;2.83;;;2.38;;
10383;SDS011;5238;43.508;4.980;2023-12-20T04:12:04;5.90;;;2.65;;
10383;SDS011;5238;43.508;4.980;2023-12-20T04:14:32;2.30;;;2.10;;
10383;SDS011;5238;43.508;4.980;2023-12-20T04:16:59;3.67;;;2.42;;
10383;SDS011;5238;43.508;4.980;2023-12-20T04:19:26;2.53;;;2.33;;
10383;SDS011;5238;43.508;4.980;2023-12-20T04:21:54;2.10;;;1.90;;
10383;SDS011;5238;43.508;4.980;2023-12-20T04:24:20;1.75;;;1.65;;
10383;SDS011;5238;43.508;4.980;2023-12-20T04:26:47;2.45;;;2.13;;
10383;SDS011;5238;43.508;4.980;2023-12-20T04:29:14;1.85;;;1.75;;
10383;SDS011;5238;43.508;4.980;2023-12-20T04:31:41;1.67;;;1.58;;
10383;SDS011;5238;43.508;4.980;2023-12-20T04:34:08;3.03;;;2.10;;
10383;SDS011;5238;43.508;4.980;2023-12-20T04:36:35;2.00;;;1.80;;
10383;SDS011;5238;43.508;4.980;2023-12-20T04:39:04;2.05;;;1.85;;
10383;SDS011;5238;43.508;4.980;2023-12-20T04:41:31;2.35;;;2.15;;
10383;SDS011;5238;43.508;4.980;2023-12-20T04:43:58;1.60;;;1.50;;
10383;SDS011;5238;43.508;4.980;2023-12-20T04:46:25;1.92;;;1.83;;
10383;SDS011;5238;43.508;4.980;2023-12-20T04:48:52;1.92;;;1.73;;
10383;SDS011;5238;43.508;4.980;2023-12-20T04:51:20;1.77;;;1.67;;
10383;SDS011;5238;43.508;4.980;2023-12-20T04:53:47;2.67;;;2.47;;
10383;SDS011;5238;43.508;4.980;2023-12-20T04:56:16;2.40;;;2.17;;
10383;SDS011;5238;43.508;4.980;2023-12-20T04:58:43;3.45;;;2.17;;
10383;SDS011;5238;43.508;4.980;2023-12-20T05:01:10;2.10;;;1.88;;
10383;SDS011;5238;43.508;4.980;2023-12-20T05:03:37;2.60;;;2.40;;
10383;SDS011;5238;43.508;4.980;2023-12-20T05:06:04;2.53;;;2.33;;
10383;SDS011;5238;43.508;4.980;2023-12-20T05:08:31;3.03;;;2.35;;
10383;SDS011;5238;43.508;4.980;2023-12-20T05:10:58;2.63;;;1.92;;
10383;SDS011;5238;43.508;4.980;2023-12-20T05:13:27;2.78;;;2.22;;
10383;SDS011;5238;43.508;4.980;2023-12-20T05:15:54;1.98;;;1.88;;
10383;SDS011;5238;43.508;4.980;2023-12-20T05:18:21;1.88;;;1.77;;
10383;SDS011;5238;43.508;4.980;2023-12-20T05:20:49;2.55;;;2.35;;
10383;SDS011;5238;43.508;4.980;2023-12-20T05:23:16;2.97;;;1.90;;
10383;SDS011;5238;43.508;4.980;2023-12-20T05:25:43;2.20;;;2.00;;
10383;SDS011;5238;43.508;4.980;2023-12-20T05:28:11;2.42;;;2.05;;
10383;SDS011;5238;43.508;4.980;2023-12-20T05:30:39;2.00;;;1.65;;
10383;SDS011;5238;43.508;4.980;2023-12-20T05:33:06;2.38;;;1.80;;
10383;SDS011;5238;43.508;4.980;2023-12-20T05:35:33;1.60;;;1.50;;
10383;SDS011;5238;43.508;4.980;2023-12-20T05:38:00;2.08;;;1.60;;
10383;SDS011;5238;43.508;4.980;2023-12-20T05:40:28;2.20;;;1.80;;
10383;SDS011;5238;43.508;4.980;2023-12-20T05:42:55;1.95;;;1.85;;
10383;SDS011;5238;43.508;4.980;2023-12-20T05:45:21;3.22;;;1.70;;
10383;SDS011;5238;43.508;4.980;2023-12-20T05:47:50;2.53;;;2.15;;
10383;SDS011;5238;43.508;4.980;2023-12-20T05:50:17;2.50;;;2.30;;
10383;SDS011;5238;43.508;4.980;2023-12-20T05:52:44;2.03;;;1.50;;
10383;SDS011;5238;43.508;4.980;2023-12-20T05:55:11;2.58;;;2.35;;
10383;SDS011;5238;43.508;4.980;2023-12-20T05:57:38;2.47;;;2.28;;
10383;SDS011;5238;43.508;4.980;2023-12-20T06:00:05;1.92;;;1.83;;
10383;SDS011;5238;43.508;4.980;2023-12-20T06:02:34;1.50;;;1.40;;
10383;SDS011;5238;43.508;4.980;2023-12-20T06:05:03;1.98;;;1.85;;
10383;SDS011;5238;43.508;4.980;2023-12-20T06:07:31;2.42;;;1.60;;
10383;SDS011;5238;43.508;4.980;2023-12-20T06:09:57;3.08;;;1.30;;
10383;SDS011;5238;43.508;4.980;2023-12-20T06:12:24;5.30;;;1.40;;
10383;SDS011;5238;43.508;4.980;2023-12-20T06:14:52;2.85;;;1.80;;
10383;SDS011;5238;43.508;4.980;2023-12-20T06:17:19;1.63;;;1.52;;
10383;SDS011;5238;43.508;4.980;2023-12-20T06:19:46;2.65;;;1.50;;
10383;SDS011;5238;43.508;4.980;2023-12-20T06:22:15;1.58;;;1.40;;
10383;SDS011;5238;43.508;4.980;2023-12-20T06:24:42;1.65;;;1.45;;
10383;SDS011;5238;43.508;4.980;2023-12-20T06:27:09;1.30;;;1.20;;
10383;SDS011;5238;43.508;4.980;2023-12-20T06:29:36;1.67;;;1.58;;
10383;SDS011;5238;43.508;4.980;2023-12-20T06:32:03;2.38;;;1.45;;
10383;SDS011;5238;43.508;4.980;2023-12-20T06:34:31;5.55;;;1.60;;
10383;SDS011;5238;43.508;4.980;2023-12-20T06:36:58;1.40;;;1.30;;
10383;SDS011;5238;43.508;4.980;2023-12-20T06:39:26;5.10;;;1.67;;
10383;SDS011;5238;43.508;4.980;2023-12-20T06:41:54;1.70;;;1.60;;
10383;SDS011;5238;43.508;4.980;2023-12-20T06:44:21;3.83;;;1.50;;
10383;SDS011;5238;43.508;4.980;2023-12-20T06:46:48;6.22;;;1.75;;
10383;SDS011;5238;43.508;4.980;2023-12-20T06:49:15;1.73;;;1.23;;
10383;SDS011;5238;43.508;4.980;2023-12-20T06:51:42;2.50;;;1.20;;
10383;SDS011;5238;43.508;4.980;2023-12-20T06:54:09;3.78;;;1.80;;
10383;SDS011;5238;43.508;4.980;2023-12-20T06:56:37;3.40;;;1.48;;
10383;SDS011;5238;43.508;4.980;2023-12-20T06:59:04;2.10;;;1.20;;
10383;SDS011;5238;43.508;4.980;2023-12-20T07:01:31;2.40;;;1.60;;
10383;SDS011;5238;43.508;4.980;2023-12-20T07:03:58;2.45;;;1.67;;
10383;SDS011;5238;43.508;4.980;2023-12-20T07:06:25;1.40;;;1.30;;
10383;SDS011;5238;43.508;4.980;2023-12-20T07:08:52;1.67;;;1.50;;
10383;SDS011;5238;43.508;4.980;2023-12-20T07:11:19;3.55;;;1.58;;
10383;SDS011;5238;43.508;4.980;2023-12-20T07:13:48;6.40;;;1.77;;
10383;SDS011;5238;43.508;4.980;2023-12-20T07:16:15;3.28;;;1.67;;
10383;SDS011;5238;43.508;4.980;2023-12-20T07:18:42;1.50;;;1.08;;
10383;SDS011;5238;43.508;4.980;2023-12-20T07:21:09;2.03;;;1.92;;
10383;SDS011;5238;43.508;4.980;2023-12-20T07:23:36;2.85;;;1.75;;
10383;SDS011;5238;43.508;4.980;2023-12-20T07:26:03;3.05;;;1.40;;
10383;SDS011;5238;43.508;4.980;2023-12-20T07:28:30;1.70;;;1.33;;
10383;SDS011;5238;43.508;4.980;2023-12-20T07:30:59;2.08;;;1.88;;
10383;SDS011;5238;43.508;4.980;2023-12-20T07:33:26;2.33;;;1.65;;
10383;SDS011;5238;43.508;4.980;2023-12-20T07:35:53;4.13;;;1.67;;
10383;SDS011;5238;43.508;4.980;2023-12-20T07:38:20;1.80;;;1.30;;
10383;SDS011;5238;43.508;4.980;2023-12-20T07:40:46;2.40;;;1.40;;
10383;SDS011;5238;43.508;4.980;2023-12-20T07:43:13;1.80;;;1.70;;
10383;SDS011;5238;43.508;4.980;2023-12-20T07:45:41;1.88;;;1.25;;
10383;SDS011;5238;43.508;4.980;2023-12-20T07:48:09;1.55;;;1.38;;
10383;SDS011;5238;43.508;4.980;2023-12-20T07:50:36;1.65;;;1.55;;
10383;SDS011;5238;43.508;4.980;2023-12-20T07:53:03;1.65;;;1.55;;
10383;SDS011;5238;43.508;4.980;2023-12-20T07:55:30;2.58;;;1.60;;
10383;SDS011;5238;43.508;4.980;2023-12-20T07:57:57;2.22;;;1.70;;
10383;SDS011;5238;43.508;4.980;2023-12-20T08:00:25;3.00;;;1.80;;
10383;SDS011;5238;43.508;4.980;2023-12-20T08:02:52;2.63;;;1.55;;
10383;SDS011;5238;43.508;4.980;2023-12-20T08:05:20;1.50;;;1.40;;
10383;SDS011;5238;43.508;4.980;2023-12-20T08:07:47;2.15;;;1.08;;
10383;SDS011;5238;43.508;4.980;2023-12-20T08:10:14;1.17;;;1.08;;
10383;SDS011;5238;43.508;4.980;2023-12-20T08:12:43;1.30;;;1.20;;
10383;SDS011;5238;43.508;4.980;2023-12-20T08:15:10;1.83;;;1.25;;
10383;SDS011;5238;43.508;4.980;2023-12-20T08:17:37;1.98;;;1.13;;
10383;SDS011;5238;43.508;4.980;2023-12-20T08:20:04;1.02;;;1.00;;
10383;SDS011;5238;43.508;4.980;2023-12-20T08:22:34;1.85;;;1.70;;
10383;SDS011;5238;43.508;4.980;2023-12-20T08:25:01;2.15;;;1.10;;
10383;SDS011;5238;43.508;4.980;2023-12-20T08:27:28;1.35;;;1.02;;
10383;SDS011;5238;43.508;4.980;2023-12-20T08:29:56;1.67;;;1.58;;
10383;SDS011;5238;43.508;4.980;2023-12-20T08:32:24;2.08;;;1.35;;
10383;SDS011;5238;43.508;4.980;2023-12-20T08:34:52;1.25;;;1.15;;
10383;SDS011;5238;43.508;4.980;2023-12-20T08:37:19;3.03;;;1.52;;
10383;SDS011;5238;43.508;4.980;2023-12-20T08:39:47;2.10;;;1.60;;
10383;SDS011;5238;43.508;4.980;2023-12-20T08:42:14;5.85;;;1.45;;
10383;SDS011;5238;43.508;4.980;2023-12-20T08:44:42;1.40;;;1.30;;
10383;SDS011;5238;43.508;4.980;2023-12-20T08:47:09;1.75;;;1.35;;
10383;SDS011;5238;43.508;4.980;2023-12-20T08:49:38;2.03;;;1.20;;
10383;SDS011;5238;43.508;4.980;2023-12-20T08:52:05;1.25;;;1.15;;
10383;SDS011;5238;43.508;4.980;2023-12-20T08:54:32;1.38;;;1.25;;
10383;SDS011;5238;43.508;4.980;2023-12-20T08:57:00;1.83;;;1.30;;
10383;SDS011;5238;43.508;4.980;2023-12-20T08:59:29;2.28;;;1.48;;
10383;SDS011;5238;43.508;4.980;2023-12-20T09:01:56;3.75;;;1.65;;
10383;SDS011;5238;43.508;4.980;2023-12-20T09:04:23;1.58;;;1.20;;
10383;SDS011;5238;43.508;4.980;2023-12-20T09:06:50;1.20;;;1.10;;
10383;SDS011;5238;43.508;4.980;2023-12-20T09:09:17;1.50;;;1.40;;
10383;SDS011;5238;43.508;4.980;2023-12-20T09:11:44;3.20;;;1.30;;
10383;SDS011;5238;43.508;4.980;2023-12-20T09:14:14;1.63;;;1.10;;
10383;SDS011;5238;43.508;4.980;2023-12-20T09:16:42;2.22;;;1.27;;
10383;SDS011;5238;43.508;4.980;2023-12-20T09:19:09;2.20;;;1.30;;
10383;SDS011;5238;43.508;4.980;2023-12-20T09:21:36;1.67;;;1.10;;
10383;SDS011;5238;43.508;4.980;2023-12-20T09:24:03;1.40;;;1.30;;
10383;SDS011;5238;43.508;4.980;2023-12-20T09:26:30;1.13;;;1.02;;
10383;SDS011;5238;43.508;4.980;2023-12-20T09:28:57;1.77;;;1.20;;
10383;SDS011;5238;43.508;4.980;2023-12-20T09:31:26;1.27;;;1.20;;
10383;SDS011;5238;43.508;4.980;2023-12-20T09:33:53;1.60;;;1.50;;
10383;SDS011;5238;43.508;4.980;2023-12-20T09:36:20;1.20;;;1.10;;
10383;SDS011;5238;43.508;4.980;2023-12-20T09:38:47;1.63;;;1.40;;
10383;SDS011;5238;43.508;4.980;2023-12-20T09:41:14;1.02;;;0.93;;
10383;SDS011;5238;43.508;4.980;2023-12-20T09:43:41;1.48;;;1.38;;
10383;SDS011;5238;43.508;4.980;2023-12-20T09:46:08;1.88;;;1.38;;
10383;SDS011;5238;43.508;4.980;2023-12-20T09:48:40;3.92;;;1.42;;
10383;SDS011;5238;43.508;4.980;2023-12-20T09:51:09;2.28;;;1.20;;
10383;SDS011;5238;43.508;4.980;2023-12-20T09:53:36;1.58;;;1.48;;
10383;SDS011;5238;43.508;4.980;2023-12-20T09:56:04;1.60;;;1.50;;
10383;SDS011;5238;43.508;4.980;2023-12-20T09:58:35;1.83;;;1.67;;
10383;SDS011;5238;43.508;4.980;2023-12-20T10:01:03;3.85;;;1.73;;
10383;SDS011;5238;43.508;4.980;2023-12-20T10:03:30;4.03;;;1.55;;
10383;SDS011;5238;43.508;4.980;2023-12-20T10:05:59;1.83;;;1.25;;
10383;SDS011;5238;43.508;4.980;2023-12-20T10:08:27;1.50;;;1.40;;
10383;SDS011;5238;43.508;4.980;2023-12-20T10:10:55;1.40;;;1.30;;
10383;SDS011;5238;43.508;4.980;2023-12-20T10:13:27;2.55;;;1.58;;
10383;SDS011;5238;43.508;4.980;2023-12-20T10:15:54;2.08;;;1.90;;
10383;SDS011;5238;43.508;4.980;2023-12-20T10:18:22;1.63;;;1.30;;
10383;SDS011;5238;43.508;4.980;2023-12-20T10:20:49;1.55;;;1.45;;
10383;SDS011;5238;43.508;4.980;2023-12-20T10:23:18;1.95;;;1.70;;
10383;SDS011;5238;43.508;4.980;2023-12-20T10:25:55;1.52;;;1.40;;
10383;SDS011;5238;43.508;4.980;2023-12-20T10:28:23;1.70;;;1.15;;
10383;SDS011;5238;43.508;4.980;2023-12-20T10:30:52;1.92;;;1.58;;
10383;SDS011;5238;43.508;4.980;2023-12-20T10:33:23;2.90;;;1.58;;
10383;SDS011;5238;43.508;4.980;2023-12-20T10:35:51;1.27;;;1.05;;
10383;SDS011;5238;43.508;4.980;2023-12-20T10:38:20;2.08;;;1.23;;
10383;SDS011;5238;43.508;4.980;2023-12-20T10:40:48;1.42;;;1.30;;
10383;SDS011;5238;43.508;4.980;2023-12-20T10:43:20;1.50;;;1.27;;
10383;SDS011;5238;43.508;4.980;2023-12-20T10:45:47;3.22;;;1.65;;
10383;SDS011;5238;43.508;4.980;2023-12-20T10:48:14;1.83;;;1.73;;
10383;SDS011;5238;43.508;4.980;2023-12-20T10:50:42;4.28;;;1.88;;
10383;SDS011;5238;43.508;4.980;2023-12-20T10:53:10;4.07;;;1.90;;
10383;SDS011;5238;43.508;4.980;2023-12-20T10:55:40;7.32;;;1.80;;
10383;SDS011;5238;43.508;4.980;2023-12-20T10:58:09;4.80;;;1.77;;
10383;SDS011;5238;43.508;4.980;2023-12-20T11:00:40;2.60;;;1.63;;
10383;SDS011;5238;43.508;4.980;2023-12-20T11:03:09;3.03;;;1.90;;
10383;SDS011;5238;43.508;4.980;2023-12-20T11:05:40;4.63;;;1.55;;
10383;SDS011;5238;43.508;4.980;2023-12-20T11:08:14;2.45;;;1.85;;
10383;SDS011;5238;43.508;4.980;2023-12-20T11:10:51;3.17;;;1.77;;
10383;SDS011;5238;43.508;4.980;2023-12-20T11:13:26;2.40;;;2.13;;
10383;SDS011;5238;43.508;4.980;2023-12-20T11:15:57;2.03;;;1.73;;
10383;SDS011;5238;43.508;4.980;2023-12-20T11:18:28;2.95;;;2.00;;
10383;SDS011;5238;43.508;4.980;2023-12-20T11:20:55;3.13;;;1.95;;
10383;SDS011;5238;43.508;4.980;2023-12-20T11:23:29;4.85;;;1.90;;
10383;SDS011;5238;43.508;4.980;2023-12-20T11:25:59;2.75;;;2.03;;
10383;SDS011;5238;43.508;4.980;2023-12-20T11:28:28;2.10;;;1.90;;
10383;SDS011;5238;43.508;4.980;2023-12-20T11:30:56;3.35;;;1.70;;
10383;SDS011;5238;43.508;4.980;2023-12-20T11:33:29;3.55;;;1.92;;
10383;SDS011;5238;43.508;4.980;2023-12-20T11:35:57;1.63;;;1.52;;
10383;SDS011;5238;43.508;4.980;2023-12-20T11:38:25;2.10;;;1.90;;
10383;SDS011;5238;43.508;4.980;2023-12-20T11:40:53;2.13;;;1.88;;
10383;SDS011;5238;43.508;4.980;2023-12-20T11:43:31;2.95;;;1.70;;
10383;SDS011;5238;43.508;4.980;2023-12-20T11:46:04;1.63;;;1.52;;
10383;SDS011;5238;43.508;4.980;2023-12-20T11:48:32;3.10;;;1.90;;
10383;SDS011;5238;43.508;4.980;2023-12-20T11:51:02;1.90;;;1.70;;
10383;SDS011;5238;43.508;4.980;2023-12-20T11:53:34;2.38;;;2.08;;
10383;SDS011;5238;43.508;4.980;2023-12-20T11:56:02;2.03;;;1.73;;
10383;SDS011;5238;43.508;4.980;2023-12-20T11:58:29;2.60;;;1.80;;
10383;SDS011;5238;43.508;4.980;2023-12-20T12:00:58;3.03;;;1.83;;
10383;SDS011;5238;43.508;4.980;2023-12-20T12:03:25;2.83;;;1.77;;
10383;SDS011;5238;43.508;4.980;2023-12-20T12:05:52;3.42;;;1.67;;
10383;SDS011;5238;43.508;4.980;2023-12-20T12:08:19;2.50;;;1.50;;
10383;SDS011;5238;43.508;4.980;2023-12-20T12:10:46;3.45;;;1.75;;
10383;SDS011;5238;43.508;4.980;2023-12-20T12:13:13;1.75;;;1.65;;
10383;SDS011;5238;43.508;4.980;2023-12-20T12:15:42;5.38;;;1.85;;
10383;SDS011;5238;43.508;4.980;2023-12-20T12:18:09;4.28;;;1.90;;
10383;SDS011;5238;43.508;4.980;2023-12-20T12:20:36;4.15;;;2.50;;
10383;SDS011;5238;43.508;4.980;2023-12-20T12:23:04;4.47;;;2.08;;
10383;SDS011;5238;43.508;4.980;2023-12-20T12:25:32;1.48;;;1.33;;
10383;SDS011;5238;43.508;4.980;2023-12-20T12:28:01;4.88;;;1.83;;
10383;SDS011;5238;43.508;4.980;2023-12-20T12:30:28;8.60;;;1.83;;
10383;SDS011;5238;43.508;4.980;2023-12-20T12:32:57;2.78;;;1.52;;
10383;SDS011;5238;43.508;4.980;2023-12-20T12:35:27;2.78;;;1.80;;
10383;SDS011;5238;43.508;4.980;2023-12-20T12:37:54;4.53;;;1.73;;
10383;SDS011;5238;43.508;4.980;2023-12-20T12:40:21;2.78;;;2.00;;
10383;SDS011;5238;43.508;4.980;2023-12-20T12:42:48;6.55;;;1.90;;
10383;SDS011;5238;43.508;4.980;2023-12-20T12:45:15;2.92;;;1.70;;
10383;SDS011;5238;43.508;4.980;2023-12-20T12:47:42;2.97;;;1.60;;
10383;SDS011;5238;43.508;4.980;2023-12-20T12:50:11;1.55;;;1.45;;
10383;SDS011;5238;43.508;4.980;2023-12-20T12:52:38;3.42;;;1.48;;
10383;SDS011;5238;43.508;4.980;2023-12-20T12:55:05;1.77;;;1.50;;
10383;SDS011;5238;43.508;4.980;2023-12-20T12:57:32;3.10;;;1.70;;
10383;SDS011;5238;43.508;4.980;2023-12-20T12:59:59;3.22;;;1.70;;
10383;SDS011;5238;43.508;4.980;2023-12-20T13:02:28;3.30;;;1.70;;
10383;SDS011;5238;43.508;4.980;2023-12-20T13:04:55;3.75;;;2.15;;
10383;SDS011;5238;43.508;4.980;2023-12-20T13:07:24;7.40;;;1.63;;
10383;SDS011;5238;43.508;4.980;2023-12-20T13:09:51;1.73;;;1.63;;
10383;SDS011;5238;43.508;4.980;2023-12-20T13:12:18;2.30;;;1.63;;
10383;SDS011;5238;43.508;4.980;2023-12-20T13:14:45;1.50;;;1.20;;
10383;SDS011;5238;43.508;4.980;2023-12-20T13:17:12;2.72;;;1.70;;
10383;SDS011;5238;43.508;4.980;2023-12-20T13:19:39;2.90;;;1.90;;
10383;SDS011;5238;43.508;4.980;2023-12-20T13:22:06;6.28;;;2.05;;
10383;SDS011;5238;43.508;4.980;2023-12-20T13:24:34;3.25;;;1.58;;
10383;SDS011;5238;43.508;4.980;2023-12-20T13:27:01;6.38;;;1.70;;
10383;SDS011;5238;43.508;4.980;2023-12-20T13:29:28;2.38;;;1.50;;
10383;SDS011;5238;43.508;4.980;2023-12-20T13:31:55;5.80;;;1.70;;
10383;SDS011;5238;43.508;4.980;2023-12-20T13:34:23;5.13;;;1.90;;
10383;SDS011;5238;43.508;4.980;2023-12-20T13:36:50;3.97;;;1.70;;
10383;SDS011;5238;43.508;4.980;2023-12-20T13:39:17;5.55;;;1.92;;
10383;SDS011;5238;43.508;4.980;2023-12-20T13:41:45;3.38;;;1.80;;
10383;SDS011;5238;43.508;4.980;2023-12-20T13:44:12;4.10;;;1.90;;
10383;SDS011;5238;43.508;4.980;2023-12-20T13:46:39;2.83;;;2.10;;
10383;SDS011;5238;43.508;4.980;2023-12-20T13:49:07;3.28;;;1.70;;
10383;SDS011;5238;43.508;4.980;2023-12-20T13:51:34;5.55;;;1.95;;
10383;SDS011;5238;43.508;4.980;2023-12-20T13:54:01;3.20;;;1.65;;
10383;SDS011;5238;43.508;4.980;2023-12-20T13:56:28;5.30;;;1.85;;
10383;SDS011;5238;43.508;4.980;2023-12-20T13:58:56;6.38;;;1.85;;
10383;SDS011;5238;43.508;4.980;2023-12-20T14:01:24;4.30;;;2.00;;
10383;SDS011;5238;43.508;4.980;2023-12-20T14:03:52;3.58;;;2.80;;
10383;SDS011;5238;43.508;4.980;2023-12-20T14:06:19;6.25;;;1.75;;
10383;SDS011;5238;43.508;4.980;2023-12-20T14:08:46;1.63;;;1.52;;
10383;SDS011;5238;43.508;4.980;2023-12-20T14:11:13;3.17;;;1.60;;
10383;SDS011;5238;43.508;4.980;2023-12-20T14:13:40;2.63;;;2.08;;
10383;SDS011;5238;43.508;4.980;2023-12-20T14:16:09;2.75;;;2.30;;
10383;SDS011;5238;43.508;4.980;2023-12-20T14:18:37;2.20;;;1.92;;
10383;SDS011;5238;43.508;4.980;2023-12-20T14:21:05;3.63;;;2.35;;
10383;SDS011;5238;43.508;4.980;2023-12-20T14:23:32;2.60;;;2.20;;
10383;SDS011;5238;43.508;4.980;2023-12-20T14:25:59;3.47;;;2.30;;
10383;SDS011;5238;43.508;4.980;2023-12-20T14:28:27;2.10;;;1.98;;
10383;SDS011;5238;43.508;4.980;2023-12-20T14:30:54;2.65;;;2.45;;
10383;SDS011;5238;43.508;4.980;2023-12-20T14:33:22;2.97;;;1.88;;
10383;SDS011;5238;43.508;4.980;2023-12-20T14:35:50;7.90;;;1.88;;
10383;SDS011;5238;43.508;4.980;2023-12-20T14:38:18;2.33;;;1.83;;
10383;SDS011;5238;43.508;4.980;2023-12-20T14:40:45;1.55;;;1.40;;
10383;SDS011;5238;43.508;4.980;2023-12-20T14:43:12;2.08;;;1.90;;
10383;SDS011;5238;43.508;4.980;2023-12-20T14:45:39;5.30;;;1.58;;
10383;SDS011;5238;43.508;4.980;2023-12-20T14:48:06;2.40;;;1.90;;
10383;SDS011;5238;43.508;4.980;2023-12-20T14:50:35;5.05;;;2.20;;
10383;SDS011;5238;43.508;4.980;2023-12-20T14:53:03;3.13;;;2.30;;
10383;SDS011;5238;43.508;4.980;2023-12-20T14:55:30;2.63;;;1.90;;
10383;SDS011;5238;43.508;4.980;2023-12-20T14:57:57;5.25;;;2.13;;
10383;SDS011;5238;43.508;4.980;2023-12-20T15:00:24;2.20;;;2.00;;
10383;SDS011;5238;43.508;4.980;2023-12-20T15:02:51;3.83;;;2.22;;
10383;SDS011;5238;43.508;4.980;2023-12-20T15:05:19;3.88;;;2.20;;